createdAt,value
2024-01-16T09:15:59.442Z,98700.59
2024-01-16T09:19:02.224Z,98713.53
2024-01-16T09:22:05.218Z,98730.06
2024-01-16T09:25:08.271Z,98735.38
2024-01-16T09:28:11.022Z,98751.09
2024-01-16T09:31:16.766Z,98755.13
2024-01-16T09:34:20.312Z,98760.34
2024-01-16T09:37:22.829Z,98772.63
2024-01-16T09:40:25.407Z,98767.13
2024-01-16T09:43:29.370Z,98779.88
2024-01-16T09:46:33.759Z,98787.47
2024-01-16T09:49:36.433Z,98811.66
2024-01-16T09:52:39.029Z,98825.09
2024-01-16T09:55:41.603Z,98841.78
2024-01-16T09:58:45.780Z,98860.06
2024-01-16T10:01:51.130Z,98863.34
2024-01-16T10:04:53.685Z,98893.63
2024-01-16T10:07:56.657Z,98912.06
2024-01-16T10:10:59.330Z,98930.75
2024-01-16T10:14:02.340Z,98954.63
2024-01-16T10:17:10.629Z,98965.19
2024-01-16T10:20:15.382Z,98979.06
2024-01-16T10:23:25.009Z,98990.34
2024-01-16T10:26:27.521Z,98989.00
2024-01-16T10:29:39.059Z,99001.03
2024-01-16T10:32:49.834Z,99003.44
2024-01-16T10:35:52.478Z,99015.38
2024-01-16T10:39:05.842Z,99034.31
2024-01-16T10:42:08.351Z,99043.00
2024-01-16T10:45:18.662Z,99055.78
2024-01-16T10:48:22.626Z,99052.84
2024-01-16T10:51:25.628Z,99052.66
2024-01-16T10:54:28.675Z,99069.09
2024-01-16T10:57:33.886Z,99084.66
2024-01-16T11:00:40.810Z,99099.22
2024-01-16T11:03:49.597Z,99112.13
2024-01-16T11:06:53.980Z,99134.81
2024-01-16T11:09:56.984Z,99131.41
2024-01-16T11:13:02.915Z,99145.91
2024-01-16T11:16:06.521Z,99152.41
2024-01-16T11:19:25.431Z,99155.88
2024-01-16T11:22:38.319Z,99148.78
2024-01-16T11:25:41.536Z,99153.38
2024-01-16T11:28:44.103Z,99155.66
2024-01-16T11:31:46.824Z,99147.13
2024-01-16T11:34:58.840Z,99154.91
2024-01-16T11:38:07.156Z,99149.66
2024-01-16T11:41:09.702Z,99150.34
2024-01-16T11:44:48.697Z,99153.38
2024-01-16T11:48:10.709Z,99144.94
2024-01-16T11:51:27.075Z,99154.59
2024-01-16T11:54:29.668Z,99151.09
2024-01-16T11:57:58.168Z,99153.31
2024-01-16T12:01:00.906Z,99157.94
2024-01-16T12:04:05.029Z,99162.69
2024-01-16T12:07:09.561Z,99144.19
2024-01-16T12:10:12.176Z,99146.56
2024-01-16T12:13:14.718Z,99141.44
2024-01-16T12:16:21.365Z,99141.91
2024-01-16T12:19:24.222Z,99133.34
2024-01-16T12:22:28.204Z,99129.88
2024-01-16T12:26:00.241Z,99121.56
2024-01-16T12:28:58.857Z,99117.69
2024-01-16T12:32:10.634Z,99109.78
2024-01-16T12:35:14.391Z,99098.38
2024-01-16T12:38:19.306Z,99097.47
2024-01-16T12:41:29.514Z,99095.38
2024-01-16T12:44:38.830Z,99087.63
2024-01-16T12:47:41.508Z,99091.03
2024-01-16T12:50:44.577Z,99088.13
2024-01-16T12:53:48.626Z,99091.06
2024-01-16T12:57:00.405Z,99085.75
2024-01-16T13:00:05.926Z,99091.41
2024-01-16T13:03:08.824Z,99086.25
2024-01-16T13:06:12.625Z,99091.09
